Time;durP1;ratioP1;P1;durP2;ratioP2;P2;SDS_P1;SDS_P2;PMS_P1;PMS_P2;Temp;Humidity;BMP_temperature;BMP_pressure;BME280_temperature;BME280_humidity;BME280_pressure;Samples;Min_cycle;Max_cycle;Signal;HPM_P1;HPM_P2
2023/10/08 00:02:52;;;;;;;3.05;0.77;;;21.10;99.90;;;;;;5042904;28;21240;-85
2023/10/08 00:05:24;;;;;;;2.15;0.73;;;21.20;99.90;;;;;;5045355;28;20490;-86
2023/10/08 00:07:59;;;;;;;2.40;0.70;;;21.40;99.90;;;;;;5042592;28;20204;-86
2023/10/08 00:10:41;;;;;;;2.42;1.00;;;21.40;99.90;;;;;;5032371;28;20204;-84
2023/10/08 00:13:12;;;;;;;1.83;0.57;;;21.40;99.90;;;;;;5033500;28;20283;-85
2023/10/08 00:15:52;;;;;;;2.47;0.73;;;21.60;99.90;;;;;;5030655;28;20213;-84
2023/10/08 00:18:24;;;;;;;1.67;0.70;;;21.50;99.90;;;;;;5016243;28;20257;-84
2023/10/08 00:21:05;;;;;;;2.90;0.85;;;21.60;99.90;;;;;;5020379;28;20229;-83
2023/10/08 00:23:41;;;;;;;2.33;0.80;;;21.80;99.90;;;;;;5013176;28;20197;-84
2023/10/08 00:26:18;;;;;;;2.55;0.70;;;21.80;99.90;;;;;;5017188;28;20205;-84
2023/10/08 00:28:51;;;;;;;2.28;0.50;;;21.80;99.90;;;;;;5032299;28;20205;-84
2023/10/08 00:31:26;;;;;;;3.83;0.98;;;21.80;99.90;;;;;;5032236;28;20389;-84
2023/10/08 00:34:04;;;;;;;4.05;0.68;;;22.00;99.90;;;;;;5032796;28;20212;-83
2023/10/08 00:36:35;;;;;;;1.85;0.70;;;22.30;99.90;;;;;;5032155;28;20718;-83
2023/10/08 00:39:13;;;;;;;2.22;0.75;;;22.40;98.70;;;;;;5032531;28;20734;-83
2023/10/08 00:41:47;;;;;;;3.53;0.80;;;22.50;98.30;;;;;;5035740;28;20208;-83
2023/10/08 00:44:22;;;;;;;1.88;0.60;;;22.50;96.90;;;;;;5033525;28;20638;-84
2023/10/08 00:46:55;;;;;;;1.80;0.70;;;22.60;96.50;;;;;;5033671;28;20197;-84
2023/10/08 00:49:39;;;;;;;3.03;0.90;;;22.40;97.20;;;;;;5033473;28;20201;-84
2023/10/08 00:55:14;;;;;;;2.38;0.85;;;22.80;96.80;;;;;;5021252;28;20243;-84
2023/10/08 00:57:49;;;;;;;2.53;0.60;;;22.60;96.50;;;;;;5034491;28;20246;-85
2023/10/08 01:00:31;;;;;;;1.90;0.60;;;22.60;96.70;;;;;;5031034;28;20220;-84
2023/10/08 01:03:14;;;;;;;1.98;0.88;;;22.80;94.30;;;;;;5033265;28;20643;-84
2023/10/08 01:05:47;;;;;;;1.80;0.80;;;22.80;93.20;;;;;;5032890;28;20205;-85
2023/10/08 01:08:22;;;;;;;2.45;1.02;;;22.90;94.40;;;;;;5015859;28;20208;-84
2023/10/08 01:11:00;;;;;;;2.97;0.80;;;22.90;94.20;;;;;;5022854;28;20708;-84
2023/10/08 01:13:44;;;;;;;2.45;0.80;;;22.80;93.60;;;;;;5034331;28;20286;-84
2023/10/08 01:16:17;;;;;;;3.30;1.20;;;23.10;93.70;;;;;;5032944;28;20296;-85
2023/10/08 01:18:50;;;;;;;2.58;0.93;;;23.20;92.80;;;;;;5033095;28;20232;-85
2023/10/08 01:21:34;;;;;;;1.90;0.80;;;23.20;94.50;;;;;;5035282;28;20317;-85
2023/10/08 01:24:07;;;;;;;3.10;0.68;;;23.40;94.40;;;;;;5035697;28;20204;-84
2023/10/08 01:26:40;;;;;;;1.27;0.60;;;23.60;94.50;;;;;;5039458;28;20280;-85
2023/10/08 01:29:21;;;;;;;5.00;1.10;;;23.70;91.90;;;;;;5033243;28;20197;-85
2023/10/08 01:31:53;;;;;;;3.53;1.10;;;23.70;92.10;;;;;;5016952;28;20213;-85
2023/10/08 01:34:30;;;;;;;2.88;0.98;;;23.70;91.40;;;;;;5032382;28;20225;-83
2023/10/08 01:37:08;;;;;;;1.45;0.77;;;23.70;91.50;;;;;;5032581;28;20201;-85
2023/10/08 01:39:42;;;;;;;2.35;0.90;;;23.80;91.30;;;;;;5031744;28;20197;-85
2023/10/08 01:42:17;;;;;;;2.83;0.80;;;23.90;91.60;;;;;;5032647;28;20607;-85
2023/10/08 01:44:49;;;;;;;3.40;0.88;;;23.80;91.70;;;;;;5031954;28;20224;-84
2023/10/08 01:47:20;;;;;;;5.05;0.90;;;23.60;91.80;;;;;;5033089;28;20279;-85
2023/10/08 01:49:58;;;;;;;3.10;0.90;;;23.50;92.40;;;;;;5032788;28;20205;-84
2023/10/08 01:52:31;;;;;;;2.92;0.80;;;23.50;91.90;;;;;;5033153;28;20702;-83
2023/10/08 01:55:04;;;;;;;3.35;1.02;;;23.70;91.80;;;;;;5033112;28;20201;-84
2023/10/08 01:57:36;;;;;;;1.98;0.85;;;23.90;91.60;;;;;;5029086;28;20201;-84
2023/10/08 02:00:10;;;;;;;4.03;1.00;;;23.90;91.30;;;;;;5022370;28;20216;-85
2023/10/08 02:02:42;;;;;;;2.25;0.70;;;24.10;91.50;;;;;;5034620;28;20197;-84
2023/10/08 02:05:15;;;;;;;2.53;0.70;;;24.20;90.20;;;;;;5035593;28;20209;-84
2023/10/08 02:07:45;;;;;;;4.03;1.00;;;24.20;89.90;;;;;;5033386;28;20207;-84
2023/10/08 02:10:18;;;;;;;4.72;0.80;;;24.10;87.70;;;;;;5032243;28;20197;-86
2023/10/08 02:12:49;;;;;;;5.13;0.80;;;24.20;90.00;;;;;;5036650;28;20281;-85
2023/10/08 02:15:21;;;;;;;2.78;0.80;;;24.20;90.30;;;;;;5028218;28;20205;-85
2023/10/08 02:17:52;;;;;;;3.85;0.80;;;24.20;87.70;;;;;;5032988;28;20637;-84
2023/10/08 02:20:23;;;;;;;3.53;0.80;;;24.30;88.00;;;;;;5038679;28;20253;-84
2023/10/08 02:22:54;;;;;;;3.30;0.88;;;24.00;90.60;;;;;;5037911;28;20271;-85
2023/10/08 02:25:28;;;;;;;1.85;0.80;;;23.80;92.10;;;;;;5039800;28;20205;-84
2023/10/08 02:27:59;;;;;;;2.08;0.80;;;23.90;93.20;;;;;;5041908;28;20205;-85
2023/10/08 02:30:30;;;;;;;3.35;0.90;;;24.10;93.30;;;;;;5042486;28;20189;-84
2023/10/08 02:33:02;;;;;;;3.80;0.93;;;24.10;93.70;;;;;;5044269;28;20198;-84
2023/10/08 02:35:33;;;;;;;3.78;1.08;;;24.00;93.30;;;;;;5042742;28;20236;-84
2023/10/08 02:38:06;;;;;;;2.58;0.82;;;24.00;94.40;;;;;;5041148;28;20205;-84
2023/10/08 02:40:44;;;;;;;2.03;0.80;;;24.20;93.90;;;;;;5036668;28;20225;-84
2023/10/08 02:43:16;;;;;;;2.92;0.90;;;24.10;94.30;;;;;;5037634;28;20201;-84
2023/10/08 02:45:49;;;;;;;4.18;0.98;;;24.20;95.20;;;;;;5037609;28;20209;-84
2023/10/08 02:48:20;;;;;;;4.40;0.70;;;24.20;94.00;;;;;;5037823;28;20194;-84
2023/10/08 02:50:53;;;;;;;2.97;0.88;;;24.10;94.60;;;;;;5042710;28;20235;-85
2023/10/08 02:53:25;;;;;;;2.58;0.85;;;24.10;94.30;;;;;;5046763;28;20209;-83
2023/10/08 02:55:59;;;;;;;2.53;0.88;;;24.10;94.90;;;;;;5064222;28;20647;-84
2023/10/08 02:58:36;;;;;;;3.35;1.00;;;24.30;95.90;;;;;;5067509;28;20230;-84
2023/10/08 03:01:20;;;;;;;2.00;0.82;;;24.10;94.70;;;;;;5065920;28;20228;-84
2023/10/08 03:04:01;;;;;;;3.33;1.17;;;24.00;96.10;;;;;;5069900;28;20196;-85
2023/10/08 03:06:34;;;;;;;4.47;0.95;;;24.10;96.40;;;;;;5053838;28;20209;-84
2023/10/08 03:09:05;;;;;;;4.78;1.20;;;24.00;96.30;;;;;;5054478;28;20623;-85
2023/10/08 03:11:39;;;;;;;3.05;0.80;;;24.00;95.90;;;;;;5050097;28;20205;-84
2023/10/08 03:14:21;;;;;;;4.63;1.00;;;23.90;95.60;;;;;;5047182;28;20205;-84
2023/10/08 03:16:53;;;;;;;1.85;0.70;;;23.80;96.40;;;;;;5041015;28;20200;-84
2023/10/08 03:19:27;;;;;;;4.65;0.88;;;23.80;96.60;;;;;;5035701;28;20707;-85
2023/10/08 03:21:58;;;;;;;3.95;0.80;;;23.90;95.90;;;;;;5033588;28;20229;-84
2023/10/08 03:24:37;;;;;;;5.00;0.90;;;24.10;96.20;;;;;;5033019;28;20263;-84
2023/10/08 03:27:20;;;;;;;2.45;0.90;;;24.10;96.10;;;;;;5035013;28;20209;-83
2023/10/08 03:29:54;;;;;;;2.88;0.80;;;24.00;96.40;;;;;;5034560;28;20374;-83
2023/10/08 03:32:26;;;;;;;3.65;0.88;;;23.90;95.50;;;;;;5035126;28;20200;-84
2023/10/08 03:34:59;;;;;;;4.82;0.93;;;23.80;96.30;;;;;;5036204;28;20396;-84
2023/10/08 03:37:40;;;;;;;3.50;0.80;;;23.90;95.20;;;;;;5044862;28;20201;-84
2023/10/08 03:40:25;;;;;;;3.25;0.90;;;24.00;94.90;;;;;;5027071;28;20289;-85
2023/10/08 03:43:00;;;;;;;2.22;0.65;;;23.90;94.20;;;;;;5016237;28;20221;-84
2023/10/08 03:48:15;;;;;;;2.65;0.50;;;24.00;94.10;;;;;;5016004;28;20202;-83
2023/10/08 03:50:56;;;;;;;1.70;0.68;;;24.10;93.20;;;;;;5041830;28;20209;-82
2023/10/08 03:53:30;;;;;;;1.70;0.50;;;24.20;93.10;;;;;;5055878;28;20210;-84
2023/10/08 03:56:05;;;;;;;2.90;0.65;;;24.30;93.20;;;;;;5036987;28;20567;-83
2023/10/08 03:58:46;;;;;;;2.70;0.93;;;24.20;93.20;;;;;;5019028;28;20193;-84
2023/10/08 04:01:20;;;;;;;1.95;0.60;;;24.20;93.30;;;;;;5023487;28;20252;-84
2023/10/08 04:04:00;;;;;;;1.83;0.45;;;24.30;93.80;;;;;;5032805;28;20619;-84
2023/10/08 04:06:37;;;;;;;1.98;0.80;;;24.20;93.30;;;;;;5034726;28;20229;-84
2023/10/08 04:09:23;;;;;;;3.10;0.73;;;24.20;93.50;;;;;;5033703;28;20205;-85
2023/10/08 04:11:55;;;;;;;2.42;0.80;;;24.20;92.40;;;;;;5033217;28;20209;-85
2023/10/08 04:14:30;;;;;;;4.53;0.73;;;24.10;93.60;;;;;;5032410;28;20409;-85
2023/10/08 04:17:01;;;;;;;2.13;0.80;;;23.90;95.00;;;;;;5032823;28;20736;-85
2023/10/08 04:19:33;;;;;;;2.53;0.52;;;23.80;95.50;;;;;;5033566;28;20221;-84
2023/10/08 04:22:14;;;;;;;3.20;0.60;;;23.60;96.10;;;;;;5032985;28;20229;-85
2023/10/08 04:24:46;;;;;;;3.33;0.60;;;23.60;96.10;;;;;;5034702;28;20676;-85
2023/10/08 04:27:21;;;;;;;1.70;0.80;;;23.50;96.90;;;;;;5033715;28;20201;-85
2023/10/08 04:29:56;;;;;;;3.65;0.70;;;23.50;97.20;;;;;;5033480;28;20201;-84
2023/10/08 04:32:31;;;;;;;4.85;0.90;;;23.50;95.50;;;;;;4998424;28;20723;-84
2023/10/08 04:35:07;;;;;;;3.20;0.60;;;23.60;95.50;;;;;;5031768;28;20229;-84
2023/10/08 04:37:40;;;;;;;2.75;0.50;;;23.70;94.40;;;;;;5030556;28;20197;-83
2023/10/08 04:40:16;;;;;;;1.63;0.55;;;23.70;95.20;;;;;;5031619;28;20201;-87
2023/10/08 04:42:48;;;;;;;3.88;1.02;;;23.70;96.60;;;;;;5038001;28;20235;-89
2023/10/08 04:45:26;;;;;;;2.60;0.60;;;23.80;96.20;;;;;;5034145;28;20231;-89
2023/10/08 04:47:58;;;;;;;2.80;0.70;;;23.70;96.60;;;;;;5029101;28;20259;-84
2023/10/08 04:50:30;;;;;;;1.83;0.70;;;23.80;97.00;;;;;;5026128;28;20205;-87
2023/10/08 04:53:07;;;;;;;2.28;0.73;;;23.70;97.10;;;;;;5031289;28;20194;-88
2023/10/08 04:55:48;;;;;;;2.30;0.70;;;23.50;98.30;;;;;;5034741;28;20242;-89
2023/10/08 04:58:28;;;;;;;2.17;0.80;;;23.60;98.60;;;;;;5035218;28;20248;-89
2023/10/08 05:01:17;;;;;;;1.55;0.50;;;23.80;98.30;;;;;;5035337;28;20270;-89
2023/10/08 05:04:07;;;;;;;3.72;0.80;;;23.80;98.30;;;;;;5041317;28;20208;-87
2023/10/08 05:06:50;;;;;;;2.28;0.60;;;23.80;99.00;;;;;;5040697;28;20204;-89
2023/10/08 05:09:38;;;;;;;2.40;0.80;;;23.70;99.60;;;;;;5019243;28;20209;-87
2023/10/08 05:12:28;;;;;;;2.78;0.60;;;23.60;99.20;;;;;;5019741;28;20680;-88
2023/10/08 05:15:32;;;;;;;2.22;0.70;;;23.80;97.60;;;;;;5018462;28;20217;-87
2023/10/08 05:18:13;;;;;;;2.55;0.70;;;23.60;99.20;;;;;;5017598;28;20197;-88
2023/10/08 05:20:59;;;;;;;2.15;0.85;;;23.50;99.90;;;;;;5025709;28;20251;-87
2023/10/08 05:24:08;;;;;;;1.52;0.57;;;23.60;99.00;;;;;;5018368;28;20292;-88
2023/10/08 05:26:49;;;;;;;3.17;0.75;;;23.70;99.60;;;;;;5016341;28;20247;-88
2023/10/08 05:29:52;;;;;;;4.75;0.93;;;24.00;99.70;;;;;;5019004;28;20263;-88
2023/10/08 05:35:48;;;;;;;3.88;0.73;;;24.40;97.80;;;;;;4993906;28;20222;-88
2023/10/08 05:44:38;;;;;;;1.75;0.60;;;24.50;97.60;;;;;;5038051;28;20197;-87
2023/10/08 05:47:28;;;;;;;1.48;0.63;;;24.90;96.60;;;;;;5030884;28;20224;-89
2023/10/08 05:53:01;;;;;;;2.40;0.70;;;24.80;94.30;;;;;;5046435;28;20213;-88
2023/10/08 05:55:47;;;;;;;3.35;0.63;;;24.90;94.30;;;;;;5038849;28;20212;-88
2023/10/08 05:58:35;;;;;;;2.00;0.50;;;25.10;92.90;;;;;;5035199;28;20194;-88
2023/10/08 06:01:08;;;;;;;3.00;0.60;;;25.20;92.60;;;;;;5043515;28;20279;-89
2023/10/08 06:03:59;;;;;;;1.67;0.60;;;25.70;91.00;;;;;;5039775;28;20648;-88
2023/10/08 06:06:47;;;;;;;2.20;0.57;;;25.50;91.00;;;;;;5037799;28;20201;-89
2023/10/08 06:09:34;;;;;;;1.58;0.55;;;25.20;91.40;;;;;;5018615;28;20201;-85
2023/10/08 06:12:19;;;;;;;1.42;0.50;;;25.20;91.70;;;;;;5018963;28;20202;-89
2023/10/08 06:15:08;;;;;;;1.65;0.70;;;25.40;92.30;;;;;;5035958;28;20552;-88
2023/10/08 06:18:04;;;;;;;1.27;0.50;;;25.30;92.50;;;;;;5038495;28;20308;-90
2023/10/08 06:20:41;;;;;;;6.05;1.45;;;25.50;92.20;;;;;;5026831;28;20206;-88
2023/10/08 06:23:18;;;;;;;2.33;0.60;;;26.00;91.40;;;;;;5027381;28;20228;-88
2023/10/08 06:25:56;;;;;;;1.83;0.60;;;26.00;90.30;;;;;;5029303;28;20236;-90
2023/10/08 06:28:28;;;;;;;1.48;0.57;;;26.10;90.00;;;;;;5020681;28;20669;-90
2023/10/08 06:30:59;;;;;;;1.55;0.52;;;26.00;90.30;;;;;;5027975;28;20210;-89
2023/10/08 06:33:35;;;;;;;1.45;0.60;;;25.90;90.20;;;;;;5038161;28;20217;-88
2023/10/08 06:36:13;;;;;;;2.65;0.60;;;26.00;89.30;;;;;;5036520;28;20263;-89
2023/10/08 06:38:48;;;;;;;2.03;0.60;;;26.30;87.60;;;;;;5036876;28;20203;-88
2023/10/08 06:41:28;;;;;;;2.05;0.68;;;26.40;86.80;;;;;;5035795;28;20615;-89
2023/10/08 06:44:02;;;;;;;1.45;0.70;;;26.00;87.30;;;;;;5034554;28;20665;-89
2023/10/08 06:46:34;;;;;;;1.98;0.70;;;26.30;86.20;;;;;;5034808;28;20276;-90
2023/10/08 06:49:11;;;;;;;1.95;0.60;;;26.40;84.70;;;;;;5035596;28;20197;-88
2023/10/08 06:51:55;;;;;;;1.92;0.60;;;26.20;84.10;;;;;;5026938;28;20197;-87
2023/10/08 06:54:30;;;;;;;1.52;0.68;;;26.20;83.90;;;;;;5049566;28;20220;-88
2023/10/08 06:57:13;;;;;;;2.20;0.60;;;26.20;85.20;;;;;;5040820;28;20204;-89
2023/10/08 06:59:50;;;;;;;2.33;0.60;;;26.00;87.50;;;;;;5037317;28;20672;-87
2023/10/08 07:02:26;;;;;;;1.90;0.60;;;25.90;90.20;;;;;;5034750;28;20316;-89
2023/10/08 07:04:58;;;;;;;2.42;0.57;;;25.70;89.70;;;;;;5022702;28;20206;-91
2023/10/08 07:07:32;;;;;;;2.60;0.50;;;25.80;89.80;;;;;;5036766;28;20573;-88
2023/10/08 07:10:04;;;;;;;0.93;0.70;;;25.10;91.50;;;;;;5034118;28;20276;-85
2023/10/08 07:12:39;;;;;;;4.55;0.80;;;24.90;91.90;;;;;;5036825;28;20212;-85
2023/10/08 07:15:14;;;;;;;1.55;0.50;;;24.50;92.10;;;;;;5036928;28;20227;-86
2023/10/08 07:17:45;;;;;;;3.20;0.73;;;24.40;92.00;;;;;;5005084;28;20648;-87
2023/10/08 07:20:21;;;;;;;1.90;0.70;;;24.10;93.10;;;;;;5023614;28;20221;-86
2023/10/08 07:22:54;;;;;;;1.52;0.57;;;23.70;94.10;;;;;;5031741;28;20232;-85
2023/10/08 07:25:36;;;;;;;2.50;0.80;;;23.20;95.20;;;;;;5029183;28;20213;-86
2023/10/08 07:28:12;;;;;;;4.60;0.60;;;22.60;97.30;;;;;;5026250;28;20190;-88
2023/10/08 07:30:44;;;;;;;1.75;0.60;;;22.30;97.90;;;;;;5031199;28;20232;-86
2023/10/08 07:33:17;;;;;;;1.48;0.60;;;21.90;99.20;;;;;;5033291;28;20294;-86
2023/10/08 07:36:11;;;;;;;2.15;0.70;;;21.60;99.90;;;;;;5035784;28;20236;-87
2023/10/08 07:38:44;;;;;;;5.13;0.77;;;21.40;99.90;;;;;;5040921;28;20231;-86
2023/10/08 07:41:15;;;;;;;2.47;0.60;;;21.20;99.90;;;;;;5043691;28;20209;-87
2023/10/08 07:43:57;;;;;;;1.52;0.50;;;21.00;99.90;;;;;;5044139;28;20221;-87
2023/10/08 07:46:32;;;;;;;1.42;0.60;;;20.80;99.90;;;;;;5035129;28;20201;-84
2023/10/08 07:49:05;;;;;;;2.42;0.60;;;20.70;99.90;;;;;;5020705;28;20225;-84
2023/10/08 07:51:37;;;;;;;2.70;0.75;;;20.50;99.90;;;;;;5027091;28;20268;-85
2023/10/08 07:54:16;;;;;;;1.85;0.57;;;20.60;99.90;;;;;;5024894;28;20194;-84
2023/10/08 07:56:47;;;;;;;1.63;0.57;;;20.50;99.90;;;;;;5036424;28;20284;-83
2023/10/08 07:59:22;;;;;;;1.83;0.60;;;20.50;99.90;;;;;;5043911;28;20258;-84
2023/10/08 08:01:55;;;;;;;2.17;0.65;;;20.40;99.90;;;;;;5043936;28;20634;-85
2023/10/08 08:04:31;;;;;;;2.00;0.68;;;20.40;99.90;;;;;;5043378;28;20209;-86
2023/10/08 08:07:04;;;;;;;1.20;0.50;;;20.20;99.90;;;;;;5023638;28;20201;-85
2023/10/08 08:09:37;;;;;;;1.85;0.60;;;20.10;99.90;;;;;;5038346;28;20767;-85
2023/10/08 08:12:11;;;;;;;1.15;0.60;;;20.10;99.90;;;;;;5039306;28;20212;-84
2023/10/08 08:14:44;;;;;;;1.88;0.70;;;20.00;99.90;;;;;;5032432;28;20289;-85
2023/10/08 08:17:15;;;;;;;1.95;0.60;;;20.00;99.90;;;;;;5048031;28;20205;-85
2023/10/08 08:19:50;;;;;;;3.13;0.77;;;19.80;99.90;;;;;;5046385;28;20197;-85
2023/10/08 08:22:30;;;;;;;1.02;0.52;;;19.80;99.90;;;;;;5046081;28;20256;-86
2023/10/08 08:25:15;;;;;;;2.38;0.60;;;19.70;99.90;;;;;;5050019;28;20192;-85
2023/10/08 08:27:48;;;;;;;1.63;0.50;;;19.70;99.90;;;;;;5049318;28;20201;-86
2023/10/08 08:30:26;;;;;;;2.22;0.60;;;19.80;99.90;;;;;;5042975;28;20204;-84
2023/10/08 08:32:58;;;;;;;2.20;0.40;;;19.80;99.90;;;;;;5025111;28;20221;-85
2023/10/08 08:35:29;;;;;;;1.48;0.40;;;19.70;99.90;;;;;;5025213;28;20359;-86
2023/10/08 08:38:05;;;;;;;1.73;0.50;;;19.70;99.90;;;;;;5037840;28;20204;-86
2023/10/08 08:40:37;;;;;;;1.58;0.50;;;19.70;99.90;;;;;;5033344;28;20236;-86
2023/10/08 08:43:23;;;;;;;1.23;0.50;;;19.60;99.90;;;;;;5017051;28;20257;-85
2023/10/08 08:45:56;;;;;;;2.15;0.68;;;19.70;99.90;;;;;;5020662;28;20201;-87
2023/10/08 08:48:30;;;;;;;2.45;0.57;;;19.70;99.90;;;;;;5020442;28;20213;-86
2023/10/08 08:51:03;;;;;;;4.70;0.80;;;19.70;99.90;;;;;;5036851;28;20201;-87
2023/10/08 08:53:38;;;;;;;2.03;0.60;;;19.70;99.90;;;;;;5037317;28;20259;-85
2023/10/08 08:56:12;;;;;;;1.13;0.70;;;19.70;99.90;;;;;;5018509;28;20200;-86
2023/10/08 08:58:54;;;;;;;2.90;0.93;;;19.60;99.90;;;;;;5031008;28;20194;-87
2023/10/08 09:01:33;;;;;;;2.78;0.82;;;19.60;99.90;;;;;;5023286;28;20229;-85
2023/10/08 09:04:05;;;;;;;2.30;0.80;;;19.50;99.90;;;;;;5023333;28;20233;-86
2023/10/08 09:06:42;;;;;;;2.55;0.60;;;19.50;99.90;;;;;;5023401;28;20225;-87
2023/10/08 09:09:21;;;;;;;4.90;1.45;;;19.50;99.90;;;;;;5022482;28;20217;-85
2023/10/08 09:11:57;;;;;;;1.42;0.60;;;19.50;99.90;;;;;;5034905;28;20270;-84
2023/10/08 09:14:33;;;;;;;1.33;0.70;;;19.50;99.90;;;;;;5043332;28;20256;-85
2023/10/08 09:17:09;;;;;;;1.83;0.70;;;19.50;99.90;;;;;;5040602;28;20204;-85
2023/10/08 09:19:45;;;;;;;2.85;0.80;;;19.40;99.90;;;;;;5039369;28;20225;-86
2023/10/08 09:22:19;;;;;;;3.17;0.85;;;19.40;99.90;;;;;;5038822;28;20260;-86
2023/10/08 09:24:52;;;;;;;1.67;0.60;;;19.30;99.90;;;;;;5040693;28;20227;-86
2023/10/08 09:27:30;;;;;;;1.42;0.60;;;19.30;99.90;;;;;;5047436;28;20273;-86
2023/10/08 09:30:09;;;;;;;1.75;0.70;;;19.30;99.90;;;;;;5046873;28;20205;-86
2023/10/08 09:32:49;;;;;;;3.17;0.80;;;19.30;99.90;;;;;;5038305;28;20211;-86
2023/10/08 09:35:28;;;;;;;2.58;0.88;;;19.30;99.90;;;;;;5046807;28;20233;-88
2023/10/08 09:38:00;;;;;;;0.98;0.50;;;19.30;99.90;;;;;;5030859;28;20269;-87
2023/10/08 09:40:50;;;;;;;3.35;0.77;;;19.20;99.90;;;;;;5033169;28;20212;-88
2023/10/08 09:43:47;;;;;;;1.92;0.80;;;19.20;99.90;;;;;;5051551;28;20228;-87
2023/10/08 09:46:25;;;;;;;2.15;0.77;;;19.20;99.90;;;;;;5051561;28;20207;-87
2023/10/08 09:49:13;;;;;;;3.22;0.70;;;19.20;99.90;;;;;;5054725;28;20487;-86
2023/10/08 09:51:59;;;;;;;3.97;0.73;;;19.20;99.90;;;;;;5053881;28;20181;-87
2023/10/08 09:54:49;;;;;;;1.67;0.70;;;19.20;99.90;;;;;;5052444;28;20215;-87
2023/10/08 10:01:08;;;;;;;2.60;1.00;;;19.20;99.90;;;;;;5034661;28;20289;-86
2023/10/08 10:03:59;;;;;;;2.75;1.00;;;19.20;99.90;;;;;;5047746;28;20220;-86
2023/10/08 10:06:52;;;;;;;3.22;0.80;;;19.20;99.90;;;;;;5018625;28;20202;-87
2023/10/08 10:09:29;;;;;;;3.72;0.80;;;19.10;99.90;;;;;;5053641;28;20197;-86
2023/10/08 10:12:17;;;;;;;2.47;0.60;;;19.00;99.90;;;;;;5056421;28;20185;-86
2023/10/08 10:18:33;;;;;;;2.25;0.60;;;19.10;99.90;;;;;;5057407;28;20215;-85
2023/10/08 10:21:41;;;;;;;1.55;0.70;;;19.10;99.90;;;;;;5048518;28;20437;-83
2023/10/08 10:24:37;;;;;;;2.20;0.70;;;19.10;99.90;;;;;;5042258;28;20205;-86
2023/10/08 10:27:29;;;;;;;0.82;0.50;;;19.00;99.90;;;;;;5057270;28;20188;-88
2023/10/08 10:32:59;;;;;;;2.05;0.75;;;19.00;99.90;;;;;;5056557;28;20188;-84
2023/10/08 10:35:40;;;;;;;3.53;0.82;;;19.00;99.90;;;;;;5058727;28;20312;-86
2023/10/08 10:38:18;;;;;;;1.33;0.60;;;19.00;99.90;;;;;;5052000;28;20197;-87
2023/10/08 10:40:58;;;;;;;1.95;0.75;;;19.00;99.90;;;;;;5035249;28;20259;-86
2023/10/08 10:43:40;;;;;;;1.25;0.52;;;19.00;99.90;;;;;;5048205;28;20225;-87
2023/10/08 10:54:58;;;;;;;2.65;0.70;;;19.00;99.90;;;;;;5046894;28;20197;-87
2023/10/08 10:58:04;;;;;;;2.40;0.70;;;19.00;99.90;;;;;;5048948;28;20197;-86
2023/10/08 11:03:47;;;;;;;1.42;0.85;;;19.00;99.90;;;;;;5033503;28;20248;-87
2023/10/08 11:06:33;;;;;;;1.35;0.60;;;18.90;99.90;;;;;;5050755;28;20205;-86
2023/10/08 11:09:35;;;;;;;2.13;0.85;;;18.90;99.90;;;;;;5046762;28;20198;-87
2023/10/08 11:21:56;;;;;;;1.23;0.50;;;18.80;99.90;;;;;;5052705;28;20531;-86
2023/10/08 11:24:42;;;;;;;2.35;0.70;;;18.70;99.90;;;;;;5047704;28;20233;-85
2023/10/08 11:27:37;;;;;;;2.17;0.70;;;18.70;99.90;;;;;;5051779;28;20178;-88
2023/10/08 11:30:35;;;;;;;2.03;0.60;;;18.70;99.90;;;;;;5050104;28;20235;-86
2023/10/08 11:39:45;;;;;;;1.67;0.65;;;18.50;99.90;;;;;;5036911;28;20228;-85
2023/10/08 11:45:38;;;;;;;1.08;0.57;;;18.50;99.90;;;;;;5048443;28;20205;-85
2023/10/08 11:51:34;;;;;;;2.33;0.82;;;18.40;99.90;;;;;;5012326;28;20197;-86
2023/10/08 11:54:24;;;;;;;1.38;0.73;;;18.30;99.90;;;;;;5030066;28;20209;-85
2023/10/08 11:56:56;;;;;;;1.75;0.63;;;18.30;99.90;;;;;;5012243;28;20178;-87
2023/10/08 11:59:39;;;;;;;2.72;0.70;;;18.30;99.90;;;;;;5035808;28;20197;-84
2023/10/08 12:02:20;;;;;;;2.75;0.90;;;18.30;99.90;;;;;;5042039;28;20274;-87
2023/10/08 12:05:05;;;;;;;2.28;1.00;;;18.20;99.90;;;;;;5036518;28;20244;-86
2023/10/08 12:08:22;;;;;;;3.28;1.00;;;18.20;99.90;;;;;;5049199;28;20204;-85
2023/10/08 12:11:03;;;;;;;1.27;0.88;;;18.10;99.90;;;;;;5029500;28;20189;-86
2023/10/08 12:13:49;;;;;;;3.05;0.88;;;18.10;99.90;;;;;;5028643;28;20205;-87
2023/10/08 12:19:19;;;;;;;3.38;0.90;;;18.20;99.90;;;;;;5028150;28;20182;-85
2023/10/08 12:24:35;;;;;;;3.53;1.35;;;18.10;99.90;;;;;;5034503;28;20240;-84
2023/10/08 12:27:11;;;;;;;2.80;0.75;;;18.10;99.90;;;;;;5027270;28;20210;-85
2023/10/08 12:29:42;;;;;;;1.60;0.80;;;18.10;99.90;;;;;;5016837;28;20197;-84
2023/10/08 12:32:17;;;;;;;2.78;1.10;;;18.10;99.90;;;;;;5034220;28;20208;-86
2023/10/08 12:34:48;;;;;;;1.98;1.00;;;18.10;99.90;;;;;;5031627;28;20232;-85
2023/10/08 12:37:23;;;;;;;1.35;0.70;;;18.00;99.90;;;;;;5035170;28;20617;-85
2023/10/08 12:40:11;;;;;;;1.90;0.95;;;18.00;99.90;;;;;;5031170;28;20228;-86
2023/10/08 12:42:44;;;;;;;2.58;0.93;;;18.00;99.90;;;;;;5019510;28;20206;-86
2023/10/08 12:45:20;;;;;;;1.27;0.70;;;18.00;99.90;;;;;;5015787;28;20198;-85
2023/10/08 12:47:53;;;;;;;2.85;0.88;;;17.90;99.90;;;;;;5032321;28;20204;-86
2023/10/08 12:50:29;;;;;;;1.77;1.00;;;17.90;99.90;;;;;;5027574;28;20190;-86
2023/10/08 12:53:03;;;;;;;2.38;0.80;;;17.90;99.90;;;;;;5013547;28;20204;-86
2023/10/08 12:55:39;;;;;;;3.30;1.00;;;17.80;99.90;;;;;;5001467;28;20189;-84
2023/10/08 12:58:15;;;;;;;2.10;0.80;;;17.80;99.90;;;;;;5024911;28;20702;-85
2023/10/08 13:00:49;;;;;;;1.48;0.80;;;17.80;99.90;;;;;;5032561;28;20255;-86
2023/10/08 13:03:23;;;;;;;2.38;0.80;;;17.80;99.90;;;;;;5032622;28;20212;-85
2023/10/08 13:06:03;;;;;;;1.02;0.60;;;17.70;99.90;;;;;;5035442;28;20228;-85
2023/10/08 13:08:37;;;;;;;2.95;0.90;;;17.70;99.90;;;;;;5033297;28;20259;-85
2023/10/08 13:11:09;;;;;;;2.13;0.70;;;17.60;99.90;;;;;;5034679;28;20573;-86
2023/10/08 13:13:44;;;;;;;2.13;0.85;;;17.60;99.90;;;;;;5031733;28;20197;-84
2023/10/08 13:16:15;;;;;;;1.73;1.02;;;17.60;99.90;;;;;;5033448;28;20231;-85
2023/10/08 13:18:47;;;;;;;1.83;0.60;;;17.50;99.90;;;;;;5022297;28;20210;-85
2023/10/08 13:21:18;;;;;;;2.33;1.08;;;17.40;99.90;;;;;;5000037;28;20218;-85
2023/10/08 13:23:50;;;;;;;1.58;1.00;;;17.40;99.90;;;;;;5041491;28;20252;-86
2023/10/08 13:26:24;;;;;;;2.90;0.90;;;17.50;99.90;;;;;;5041180;28;20215;-87
2023/10/08 13:28:58;;;;;;;3.00;1.02;;;17.40;99.90;;;;;;5033959;28;20202;-86
2023/10/08 13:31:36;;;;;;;1.30;0.80;;;17.40;99.90;;;;;;5033880;28;20264;-84
2023/10/08 13:34:12;;;;;;;1.92;0.90;;;17.40;99.90;;;;;;5033987;28;20275;-86
2023/10/08 13:36:46;;;;;;;1.92;1.00;;;17.30;99.90;;;;;;5034331;28;20288;-85
2023/10/08 13:39:20;;;;;;;3.00;1.00;;;17.30;99.90;;;;;;5017992;28;20205;-86
2023/10/08 13:41:52;;;;;;;1.85;0.93;;;17.30;99.90;;;;;;5014768;28;20205;-86
2023/10/08 13:44:28;;;;;;;0.93;0.70;;;17.20;99.90;;;;;;5015200;28;20256;-84
2023/10/08 13:47:00;;;;;;;1.63;0.75;;;17.20;99.90;;;;;;5037607;28;20624;-84
2023/10/08 13:49:31;;;;;;;1.98;0.90;;;17.20;99.90;;;;;;5035495;28;20901;-83
2023/10/08 13:52:02;;;;;;;2.53;0.90;;;17.20;99.90;;;;;;5027989;28;20206;-84
2023/10/08 13:54:35;;;;;;;2.15;1.00;;;17.20;99.90;;;;;;5033252;28;20202;-84
2023/10/08 13:57:08;;;;;;;2.40;0.73;;;17.10;99.90;;;;;;5027564;28;20194;-84
2023/10/08 13:59:43;;;;;;;2.03;0.80;;;17.10;99.90;;;;;;5014007;28;20285;-84
2023/10/08 14:02:17;;;;;;;1.45;0.80;;;17.10;99.90;;;;;;5013133;28;20261;-83
2023/10/08 14:04:50;;;;;;;1.85;0.85;;;17.10;99.90;;;;;;5028195;28;20761;-84
2023/10/08 14:07:22;;;;;;;2.00;0.93;;;17.00;99.90;;;;;;5029310;28;20280;-84
2023/10/08 14:09:54;;;;;;;2.50;0.70;;;17.00;99.90;;;;;;5030074;28;20672;-83
2023/10/08 14:12:28;;;;;;;3.70;0.98;;;17.00;99.90;;;;;;5018153;28;20237;-83
2023/10/08 14:15:05;;;;;;;2.38;0.80;;;17.00;99.90;;;;;;5036177;28;20675;-83
2023/10/08 14:17:43;;;;;;;1.85;0.75;;;16.90;99.90;;;;;;5035663;28;20208;-84
2023/10/08 14:20:21;;;;;;;2.40;0.80;;;16.90;99.90;;;;;;5032476;28;20217;-85
2023/10/08 14:22:57;;;;;;;1.02;0.77;;;16.80;99.90;;;;;;5020563;28;20198;-85
2023/10/08 14:25:33;;;;;;;1.83;0.90;;;16.80;99.90;;;;;;5022072;28;20296;-84
2023/10/08 14:28:08;;;;;;;1.98;0.80;;;16.90;99.90;;;;;;5025208;28;20206;-84
2023/10/08 14:30:43;;;;;;;1.67;1.02;;;16.80;99.90;;;;;;5030946;28;20260;-85
2023/10/08 14:33:24;;;;;;;2.10;0.98;;;16.80;99.90;;;;;;5043468;28;20200;-84
2023/10/08 14:44:15;;;;;;;2.78;0.85;;;16.80;99.90;;;;;;5026713;28;20364;-85
2023/10/08 14:46:48;;;;;;;2.42;0.95;;;16.80;99.90;;;;;;5024294;28;20201;-85
2023/10/08 14:49:22;;;;;;;1.92;0.90;;;16.70;99.90;;;;;;5025455;28;20205;-85
2023/10/08 14:51:54;;;;;;;1.80;0.80;;;16.70;99.90;;;;;;5039467;28;20182;-85
2023/10/08 14:54:25;;;;;;;2.65;0.70;;;16.70;99.90;;;;;;5048213;28;20224;-86
2023/10/08 14:56:57;;;;;;;2.85;0.90;;;16.70;99.90;;;;;;5050041;28;20197;-85
2023/10/08 14:59:30;;;;;;;2.45;0.80;;;16.70;99.90;;;;;;5049761;28;20205;-85